Terminal Aerodrome Forecast
Issued by NWS

Home | Current Version | Previous Version | Text Only | Print | Product List | Glossary On
Versions: 1 2 3 4 5 6 7 8 9 10 11 12 13 14 15 16 17 18 19 20
000
FTUS44 KLZK 161300 AAA
TAFHRO
TAF AMD
KHRO 161301Z 1613/1712 00000KT 3/4SM BR OVC002
      TEMPO 1613/1615 3SM BR SCT007 OVC012
     FM161500 05005KT P6SM OVC015
     FM161900 06005KT P6SM SCT025 BKN060
     FM170100 14003KT P6SM SCT060 SCT250
     FM170800 14004KT P6SM BKN060=

USA.gov is the U.S. government's official web portal to all federal, state and local government web resources and services.